sensor_id;sensor_type;location;lat;lon;timestamp;P1;durP1;ratioP1;P2;durP2;ratioP2
8958;SDS011;4514;49.476;8.484;2022-07-30T00:02:08;7.90;;;4.63;;
8958;SDS011;4514;49.476;8.484;2022-07-30T00:04:34;4.60;;;3.90;;
8958;SDS011;4514;49.476;8.484;2022-07-30T00:06:59;6.70;;;4.50;;
8958;SDS011;4514;49.476;8.484;2022-07-30T00:09:25;6.40;;;3.92;;
8958;SDS011;4514;49.476;8.484;2022-07-30T00:11:52;6.10;;;4.75;;
8958;SDS011;4514;49.476;8.484;2022-07-30T00:14:18;4.82;;;4.32;;
8958;SDS011;4514;49.476;8.484;2022-07-30T00:16:43;7.25;;;4.75;;
8958;SDS011;4514;49.476;8.484;2022-07-30T00:19:11;4.75;;;4.20;;
8958;SDS011;4514;49.476;8.484;2022-07-30T00:21:36;5.60;;;4.82;;
8958;SDS011;4514;49.476;8.484;2022-07-30T00:24:02;8.13;;;4.78;;
8958;SDS011;4514;49.476;8.484;2022-07-30T00:26:28;5.85;;;4.60;;
8958;SDS011;4514;49.476;8.484;2022-07-30T00:28:56;6.43;;;4.30;;
8958;SDS011;4514;49.476;8.484;2022-07-30T00:31:23;8.38;;;5.53;;
8958;SDS011;4514;49.476;8.484;2022-07-30T00:33:49;6.55;;;5.38;;
8958;SDS011;4514;49.476;8.484;2022-07-30T00:36:14;6.93;;;5.20;;
8958;SDS011;4514;49.476;8.484;2022-07-30T00:38:40;9.95;;;5.38;;
8958;SDS011;4514;49.476;8.484;2022-07-30T00:41:05;5.82;;;5.00;;
8958;SDS011;4514;49.476;8.484;2022-07-30T00:43:33;9.70;;;5.10;;
8958;SDS011;4514;49.476;8.484;2022-07-30T00:45:58;5.10;;;4.60;;
8958;SDS011;4514;49.476;8.484;2022-07-30T00:48:23;4.72;;;4.28;;
8958;SDS011;4514;49.476;8.484;2022-07-30T00:50:49;7.80;;;4.38;;
8958;SDS011;4514;49.476;8.484;2022-07-30T00:53:14;7.03;;;4.45;;
8958;SDS011;4514;49.476;8.484;2022-07-30T00:55:42;6.63;;;4.25;;
8958;SDS011;4514;49.476;8.484;2022-07-30T00:58:07;6.15;;;3.63;;
8958;SDS011;4514;49.476;8.484;2022-07-30T01:00:33;6.50;;;3.97;;
8958;SDS011;4514;49.476;8.484;2022-07-30T01:03:00;4.97;;;3.75;;
8958;SDS011;4514;49.476;8.484;2022-07-30T01:05:26;5.50;;;3.25;;
8958;SDS011;4514;49.476;8.484;2022-07-30T01:07:53;8.15;;;3.50;;
8958;SDS011;4514;49.476;8.484;2022-07-30T01:10:18;4.47;;;3.35;;
8958;SDS011;4514;49.476;8.484;2022-07-30T01:12:44;5.57;;;2.92;;
8958;SDS011;4514;49.476;8.484;2022-07-30T01:15:09;5.03;;;3.03;;
8958;SDS011;4514;49.476;8.484;2022-07-30T01:17:36;4.90;;;3.03;;
8958;SDS011;4514;49.476;8.484;2022-07-30T01:20:12;7.72;;;3.30;;
8958;SDS011;4514;49.476;8.484;2022-07-30T01:22:49;7.15;;;3.45;;
8958;SDS011;4514;49.476;8.484;2022-07-30T01:28:02;4.28;;;3.33;;
8958;SDS011;4514;49.476;8.484;2022-07-30T01:30:30;4.95;;;3.50;;
8958;SDS011;4514;49.476;8.484;2022-07-30T01:32:57;4.82;;;3.13;;
8958;SDS011;4514;49.476;8.484;2022-07-30T01:35:29;4.05;;;3.10;;
8958;SDS011;4514;49.476;8.484;2022-07-30T01:37:56;4.63;;;3.28;;
8958;SDS011;4514;49.476;8.484;2022-07-30T01:40:25;5.47;;;3.10;;
8958;SDS011;4514;49.476;8.484;2022-07-30T01:42:52;5.18;;;3.03;;
8958;SDS011;4514;49.476;8.484;2022-07-30T01:45:21;5.22;;;3.15;;
8958;SDS011;4514;49.476;8.484;2022-07-30T01:47:48;3.83;;;3.13;;
8958;SDS011;4514;49.476;8.484;2022-07-30T01:50:14;6.18;;;2.95;;
8958;SDS011;4514;49.476;8.484;2022-07-30T01:52:43;5.50;;;3.20;;
8958;SDS011;4514;49.476;8.484;2022-07-30T01:55:11;3.95;;;2.95;;
8958;SDS011;4514;49.476;8.484;2022-07-30T01:57:42;4.38;;;3.00;;
8958;SDS011;4514;49.476;8.484;2022-07-30T02:00:09;4.72;;;3.28;;
8958;SDS011;4514;49.476;8.484;2022-07-30T02:02:36;4.22;;;2.90;;
8958;SDS011;4514;49.476;8.484;2022-07-30T02:05:03;7.93;;;3.25;;
8958;SDS011;4514;49.476;8.484;2022-07-30T02:10:07;4.75;;;3.65;;
8958;SDS011;4514;49.476;8.484;2022-07-30T02:12:38;3.80;;;3.40;;
8958;SDS011;4514;49.476;8.484;2022-07-30T02:20:28;4.35;;;3.50;;
8958;SDS011;4514;49.476;8.484;2022-07-30T02:22:59;6.03;;;4.00;;
8958;SDS011;4514;49.476;8.484;2022-07-30T02:25:26;7.45;;;3.55;;
8958;SDS011;4514;49.476;8.484;2022-07-30T02:27:54;5.18;;;3.90;;
8958;SDS011;4514;49.476;8.484;2022-07-30T02:30:25;4.45;;;3.63;;
8958;SDS011;4514;49.476;8.484;2022-07-30T02:32:51;4.15;;;3.75;;
8958;SDS011;4514;49.476;8.484;2022-07-30T02:35:20;4.30;;;3.67;;
8958;SDS011;4514;49.476;8.484;2022-07-30T02:37:47;5.25;;;3.83;;
8958;SDS011;4514;49.476;8.484;2022-07-30T02:40:15;5.75;;;4.15;;
8958;SDS011;4514;49.476;8.484;2022-07-30T02:42:42;5.15;;;3.70;;
8958;SDS011;4514;49.476;8.484;2022-07-30T02:45:11;4.40;;;4.00;;
8958;SDS011;4514;49.476;8.484;2022-07-30T02:47:37;5.72;;;4.18;;
8958;SDS011;4514;49.476;8.484;2022-07-30T02:50:04;4.78;;;3.92;;
8958;SDS011;4514;49.476;8.484;2022-07-30T02:52:30;6.03;;;3.70;;
8958;SDS011;4514;49.476;8.484;2022-07-30T02:54:56;6.72;;;4.00;;
8958;SDS011;4514;49.476;8.484;2022-07-30T02:57:22;8.13;;;3.85;;
8958;SDS011;4514;49.476;8.484;2022-07-30T02:59:47;7.03;;;3.78;;
8958;SDS011;4514;49.476;8.484;2022-07-30T03:02:13;5.90;;;3.92;;
8958;SDS011;4514;49.476;8.484;2022-07-30T03:04:39;5.68;;;4.00;;
8958;SDS011;4514;49.476;8.484;2022-07-30T03:07:05;4.20;;;3.50;;
8958;SDS011;4514;49.476;8.484;2022-07-30T03:09:37;6.88;;;4.22;;
8958;SDS011;4514;49.476;8.484;2022-07-30T03:12:03;4.53;;;3.60;;
8958;SDS011;4514;49.476;8.484;2022-07-30T03:14:32;4.45;;;4.00;;
8958;SDS011;4514;49.476;8.484;2022-07-30T03:16:57;4.95;;;3.83;;
8958;SDS011;4514;49.476;8.484;2022-07-30T03:19:24;6.07;;;3.60;;
8958;SDS011;4514;49.476;8.484;2022-07-30T03:21:56;5.45;;;3.72;;
8958;SDS011;4514;49.476;8.484;2022-07-30T03:24:25;4.47;;;3.85;;
8958;SDS011;4514;49.476;8.484;2022-07-30T03:26:51;7.25;;;3.85;;
8958;SDS011;4514;49.476;8.484;2022-07-30T03:29:18;4.70;;;3.90;;
8958;SDS011;4514;49.476;8.484;2022-07-30T03:31:44;5.72;;;3.45;;
8958;SDS011;4514;49.476;8.484;2022-07-30T03:34:13;4.90;;;3.45;;
8958;SDS011;4514;49.476;8.484;2022-07-30T03:36:38;4.47;;;3.67;;
8958;SDS011;4514;49.476;8.484;2022-07-30T03:39:05;6.15;;;3.90;;
8958;SDS011;4514;49.476;8.484;2022-07-30T03:41:31;6.13;;;3.47;;
8958;SDS011;4514;49.476;8.484;2022-07-30T03:43:56;5.55;;;3.90;;
8958;SDS011;4514;49.476;8.484;2022-07-30T03:46:22;4.75;;;3.67;;
8958;SDS011;4514;49.476;8.484;2022-07-30T03:48:48;5.40;;;3.65;;
8958;SDS011;4514;49.476;8.484;2022-07-30T03:51:14;5.80;;;4.10;;
8958;SDS011;4514;49.476;8.484;2022-07-30T03:53:40;6.82;;;4.40;;
8958;SDS011;4514;49.476;8.484;2022-07-30T03:56:06;5.55;;;4.63;;
8958;SDS011;4514;49.476;8.484;2022-07-30T03:58:32;7.72;;;5.07;;
8958;SDS011;4514;49.476;8.484;2022-07-30T04:00:57;9.38;;;4.72;;
8958;SDS011;4514;49.476;8.484;2022-07-30T04:03:26;6.60;;;4.75;;
8958;SDS011;4514;49.476;8.484;2022-07-30T04:05:53;7.03;;;4.55;;
8958;SDS011;4514;49.476;8.484;2022-07-30T04:08:18;7.45;;;4.75;;
8958;SDS011;4514;49.476;8.484;2022-07-30T04:10:46;5.57;;;5.00;;
8958;SDS011;4514;49.476;8.484;2022-07-30T04:13:14;7.00;;;4.60;;
8958;SDS011;4514;49.476;8.484;2022-07-30T04:15:48;7.75;;;5.40;;
8958;SDS011;4514;49.476;8.484;2022-07-30T04:18:18;6.15;;;4.60;;
8958;SDS011;4514;49.476;8.484;2022-07-30T04:20:45;7.47;;;4.85;;
8958;SDS011;4514;49.476;8.484;2022-07-30T04:23:11;6.45;;;4.80;;
8958;SDS011;4514;49.476;8.484;2022-07-30T04:25:37;6.80;;;4.63;;
8958;SDS011;4514;49.476;8.484;2022-07-30T04:28:07;7.18;;;4.82;;
8958;SDS011;4514;49.476;8.484;2022-07-30T04:30:33;6.25;;;5.25;;
8958;SDS011;4514;49.476;8.484;2022-07-30T04:33:02;6.63;;;4.72;;
8958;SDS011;4514;49.476;8.484;2022-07-30T04:35:31;6.38;;;4.80;;
8958;SDS011;4514;49.476;8.484;2022-07-30T04:37:57;7.13;;;4.50;;
8958;SDS011;4514;49.476;8.484;2022-07-30T04:40:22;8.15;;;5.20;;
8958;SDS011;4514;49.476;8.484;2022-07-30T04:42:49;7.03;;;4.95;;
8958;SDS011;4514;49.476;8.484;2022-07-30T04:45:14;8.38;;;5.40;;
8958;SDS011;4514;49.476;8.484;2022-07-30T04:47:45;5.93;;;4.80;;
8958;SDS011;4514;49.476;8.484;2022-07-30T04:50:10;6.97;;;4.80;;
8958;SDS011;4514;49.476;8.484;2022-07-30T04:52:37;8.13;;;5.18;;
8958;SDS011;4514;49.476;8.484;2022-07-30T04:55:03;7.78;;;5.10;;
8958;SDS011;4514;49.476;8.484;2022-07-30T04:57:30;6.55;;;5.22;;
8958;SDS011;4514;49.476;8.484;2022-07-30T04:59:56;8.02;;;5.18;;
8958;SDS011;4514;49.476;8.484;2022-07-30T05:02:23;6.45;;;5.13;;
8958;SDS011;4514;49.476;8.484;2022-07-30T05:04:49;9.98;;;4.75;;
8958;SDS011;4514;49.476;8.484;2022-07-30T05:07:18;5.95;;;5.35;;
8958;SDS011;4514;49.476;8.484;2022-07-30T05:09:44;5.65;;;4.88;;
8958;SDS011;4514;49.476;8.484;2022-07-30T05:12:10;6.55;;;4.60;;
8958;SDS011;4514;49.476;8.484;2022-07-30T05:14:35;7.93;;;4.90;;
8958;SDS011;4514;49.476;8.484;2022-07-30T05:17:01;8.15;;;5.07;;
8958;SDS011;4514;49.476;8.484;2022-07-30T05:19:27;6.93;;;5.03;;
8958;SDS011;4514;49.476;8.484;2022-07-30T05:21:52;6.90;;;5.05;;
8958;SDS011;4514;49.476;8.484;2022-07-30T05:24:20;5.35;;;4.85;;
8958;SDS011;4514;49.476;8.484;2022-07-30T05:26:46;6.65;;;5.00;;
8958;SDS011;4514;49.476;8.484;2022-07-30T05:29:11;5.60;;;5.00;;
8958;SDS011;4514;49.476;8.484;2022-07-30T05:31:37;7.18;;;5.22;;
8958;SDS011;4514;49.476;8.484;2022-07-30T05:34:02;6.72;;;5.40;;
8958;SDS011;4514;49.476;8.484;2022-07-30T05:36:28;7.40;;;5.18;;
8958;SDS011;4514;49.476;8.484;2022-07-30T05:38:56;7.07;;;5.47;;
8958;SDS011;4514;49.476;8.484;2022-07-30T05:41:21;6.55;;;5.60;;
8958;SDS011;4514;49.476;8.484;2022-07-30T05:43:46;7.30;;;5.25;;
8958;SDS011;4514;49.476;8.484;2022-07-30T05:46:14;10.70;;;6.05;;
8958;SDS011;4514;49.476;8.484;2022-07-30T05:48:41;7.65;;;6.53;;
8958;SDS011;4514;49.476;8.484;2022-07-30T05:51:07;8.80;;;6.32;;
8958;SDS011;4514;49.476;8.484;2022-07-30T05:53:32;9.73;;;5.57;;
8958;SDS011;4514;49.476;8.484;2022-07-30T05:55:58;8.02;;;5.60;;
8958;SDS011;4514;49.476;8.484;2022-07-30T05:58:25;6.75;;;5.53;;
8958;SDS011;4514;49.476;8.484;2022-07-30T06:00:51;7.50;;;5.43;;
8958;SDS011;4514;49.476;8.484;2022-07-30T06:03:16;6.53;;;5.20;;
8958;SDS011;4514;49.476;8.484;2022-07-30T06:05:41;6.43;;;5.82;;
8958;SDS011;4514;49.476;8.484;2022-07-30T06:08:09;10.38;;;5.63;;
8958;SDS011;4514;49.476;8.484;2022-07-30T06:10:35;7.25;;;5.85;;
8958;SDS011;4514;49.476;8.484;2022-07-30T06:13:00;6.85;;;5.95;;
8958;SDS011;4514;49.476;8.484;2022-07-30T06:15:25;8.23;;;5.97;;
8958;SDS011;4514;49.476;8.484;2022-07-30T06:17:51;8.65;;;6.55;;
8958;SDS011;4514;49.476;8.484;2022-07-30T06:20:19;9.85;;;6.25;;
8958;SDS011;4514;49.476;8.484;2022-07-30T06:22:45;7.82;;;5.80;;
8958;SDS011;4514;49.476;8.484;2022-07-30T06:25:13;9.15;;;6.57;;
8958;SDS011;4514;49.476;8.484;2022-07-30T06:27:39;7.47;;;6.57;;
8958;SDS011;4514;49.476;8.484;2022-07-30T06:30:05;11.27;;;6.32;;
8958;SDS011;4514;49.476;8.484;2022-07-30T06:32:32;6.88;;;5.82;;
8958;SDS011;4514;49.476;8.484;2022-07-30T06:34:59;8.35;;;5.80;;
8958;SDS011;4514;49.476;8.484;2022-07-30T06:37:24;6.78;;;6.07;;
8958;SDS011;4514;49.476;8.484;2022-07-30T06:39:50;7.40;;;6.00;;
8958;SDS011;4514;49.476;8.484;2022-07-30T06:42:15;7.25;;;6.20;;
8958;SDS011;4514;49.476;8.484;2022-07-30T06:44:43;7.88;;;6.40;;
8958;SDS011;4514;49.476;8.484;2022-07-30T06:47:08;7.93;;;5.93;;
8958;SDS011;4514;49.476;8.484;2022-07-30T06:49:34;8.80;;;5.70;;
8958;SDS011;4514;49.476;8.484;2022-07-30T06:52:00;8.25;;;6.47;;
8958;SDS011;4514;49.476;8.484;2022-07-30T06:54:26;7.18;;;5.68;;
8958;SDS011;4514;49.476;8.484;2022-07-30T06:56:52;8.43;;;5.50;;
8958;SDS011;4514;49.476;8.484;2022-07-30T06:59:17;9.82;;;6.25;;
8958;SDS011;4514;49.476;8.484;2022-07-30T07:01:45;6.88;;;6.03;;
8958;SDS011;4514;49.476;8.484;2022-07-30T07:04:13;7.57;;;6.07;;
8958;SDS011;4514;49.476;8.484;2022-07-30T07:06:43;7.65;;;6.95;;
8958;SDS011;4514;49.476;8.484;2022-07-30T07:09:11;7.75;;;6.28;;
8958;SDS011;4514;49.476;8.484;2022-07-30T07:11:36;6.07;;;5.53;;
8958;SDS011;4514;49.476;8.484;2022-07-30T07:14:04;7.00;;;6.13;;
8958;SDS011;4514;49.476;8.484;2022-07-30T07:16:29;8.13;;;6.60;;
8958;SDS011;4514;49.476;8.484;2022-07-30T07:18:55;10.88;;;6.65;;
8958;SDS011;4514;49.476;8.484;2022-07-30T07:21:21;7.85;;;5.43;;
8958;SDS011;4514;49.476;8.484;2022-07-30T07:23:47;11.80;;;7.10;;
8958;SDS011;4514;49.476;8.484;2022-07-30T07:26:13;7.72;;;6.88;;
8958;SDS011;4514;49.476;8.484;2022-07-30T07:28:39;8.75;;;6.75;;
8958;SDS011;4514;49.476;8.484;2022-07-30T07:31:07;8.07;;;6.25;;
8958;SDS011;4514;49.476;8.484;2022-07-30T07:33:33;7.18;;;5.78;;
8958;SDS011;4514;49.476;8.484;2022-07-30T07:35:58;7.68;;;5.45;;
8958;SDS011;4514;49.476;8.484;2022-07-30T07:38:34;8.93;;;5.57;;
8958;SDS011;4514;49.476;8.484;2022-07-30T07:41:00;8.45;;;5.75;;
8958;SDS011;4514;49.476;8.484;2022-07-30T07:43:26;8.02;;;5.15;;
8958;SDS011;4514;49.476;8.484;2022-07-30T07:45:51;8.43;;;5.40;;
8958;SDS011;4514;49.476;8.484;2022-07-30T07:48:17;8.23;;;6.00;;
8958;SDS011;4514;49.476;8.484;2022-07-30T07:50:44;11.93;;;6.00;;
8958;SDS011;4514;49.476;8.484;2022-07-30T07:53:10;7.95;;;5.38;;
8958;SDS011;4514;49.476;8.484;2022-07-30T07:55:36;7.03;;;5.70;;
8958;SDS011;4514;49.476;8.484;2022-07-30T07:58:02;7.75;;;5.60;;
8958;SDS011;4514;49.476;8.484;2022-07-30T08:00:29;7.70;;;5.45;;
8958;SDS011;4514;49.476;8.484;2022-07-30T08:02:55;5.90;;;4.53;;
8958;SDS011;4514;49.476;8.484;2022-07-30T08:05:20;8.05;;;5.60;;
8958;SDS011;4514;49.476;8.484;2022-07-30T08:07:48;7.68;;;5.65;;
8958;SDS011;4514;49.476;8.484;2022-07-30T08:10:14;7.68;;;5.22;;
8958;SDS011;4514;49.476;8.484;2022-07-30T08:12:40;6.72;;;5.18;;
8958;SDS011;4514;49.476;8.484;2022-07-30T08:15:06;6.70;;;5.57;;
8958;SDS011;4514;49.476;8.484;2022-07-30T08:17:33;7.28;;;5.57;;
8958;SDS011;4514;49.476;8.484;2022-07-30T08:20:04;6.95;;;4.95;;
8958;SDS011;4514;49.476;8.484;2022-07-30T08:22:29;8.23;;;5.40;;
8958;SDS011;4514;49.476;8.484;2022-07-30T08:24:55;7.93;;;5.22;;
8958;SDS011;4514;49.476;8.484;2022-07-30T08:27:20;8.68;;;6.40;;
8958;SDS011;4514;49.476;8.484;2022-07-30T08:29:46;7.22;;;6.05;;
8958;SDS011;4514;49.476;8.484;2022-07-30T08:32:11;8.48;;;5.30;;
8958;SDS011;4514;49.476;8.484;2022-07-30T08:34:39;8.38;;;5.55;;
8958;SDS011;4514;49.476;8.484;2022-07-30T08:37:05;5.53;;;4.07;;
8958;SDS011;4514;49.476;8.484;2022-07-30T08:39:30;6.13;;;5.53;;
8958;SDS011;4514;49.476;8.484;2022-07-30T08:41:56;7.55;;;5.60;;
8958;SDS011;4514;49.476;8.484;2022-07-30T08:44:25;7.88;;;4.90;;
8958;SDS011;4514;49.476;8.484;2022-07-30T08:46:52;7.53;;;4.38;;
8958;SDS011;4514;49.476;8.484;2022-07-30T08:49:22;6.50;;;4.90;;
8958;SDS011;4514;49.476;8.484;2022-07-30T08:51:50;8.45;;;5.00;;
8958;SDS011;4514;49.476;8.484;2022-07-30T08:54:18;4.63;;;3.67;;
8958;SDS011;4514;49.476;8.484;2022-07-30T08:56:46;4.22;;;3.80;;
8958;SDS011;4514;49.476;8.484;2022-07-30T08:59:14;4.88;;;3.47;;
8958;SDS011;4514;49.476;8.484;2022-07-30T09:01:41;5.07;;;3.72;;
8958;SDS011;4514;49.476;8.484;2022-07-30T09:04:06;6.13;;;5.38;;
8958;SDS011;4514;49.476;8.484;2022-07-30T09:06:32;7.80;;;3.88;;
8958;SDS011;4514;49.476;8.484;2022-07-30T09:08:57;7.18;;;4.05;;
8958;SDS011;4514;49.476;8.484;2022-07-30T09:11:25;6.50;;;4.10;;
8958;SDS011;4514;49.476;8.484;2022-07-30T09:13:51;4.82;;;3.70;;
8958;SDS011;4514;49.476;8.484;2022-07-30T09:16:20;6.03;;;3.80;;
8958;SDS011;4514;49.476;8.484;2022-07-30T09:18:52;4.53;;;3.50;;
8958;SDS011;4514;49.476;8.484;2022-07-30T09:21:20;4.95;;;3.45;;
8958;SDS011;4514;49.476;8.484;2022-07-30T09:26:25;4.90;;;3.40;;
8958;SDS011;4514;49.476;8.484;2022-07-30T09:28:54;4.35;;;3.28;;
8958;SDS011;4514;49.476;8.484;2022-07-30T09:31:20;6.82;;;3.33;;
8958;SDS011;4514;49.476;8.484;2022-07-30T09:33:46;5.35;;;3.20;;
8958;SDS011;4514;49.476;8.484;2022-07-30T09:36:13;5.45;;;3.15;;
8958;SDS011;4514;49.476;8.484;2022-07-30T09:38:48;5.45;;;3.78;;
8958;SDS011;4514;49.476;8.484;2022-07-30T09:41:16;5.80;;;3.20;;
8958;SDS011;4514;49.476;8.484;2022-07-30T09:43:59;3.13;;;2.78;;
8958;SDS011;4514;49.476;8.484;2022-07-30T09:46:46;3.92;;;3.30;;
8958;SDS011;4514;49.476;8.484;2022-07-30T09:49:17;4.80;;;3.50;;
8958;SDS011;4514;49.476;8.484;2022-07-30T09:51:47;4.68;;;3.25;;
8958;SDS011;4514;49.476;8.484;2022-07-30T09:54:13;6.25;;;3.10;;
8958;SDS011;4514;49.476;8.484;2022-07-30T09:56:46;5.82;;;3.08;;
8958;SDS011;4514;49.476;8.484;2022-07-30T09:59:27;4.28;;;3.10;;
8958;SDS011;4514;49.476;8.484;2022-07-30T10:01:54;5.63;;;2.90;;
8958;SDS011;4514;49.476;8.484;2022-07-30T10:04:26;4.30;;;3.10;;
8958;SDS011;4514;49.476;8.484;2022-07-30T10:06:53;5.25;;;2.83;;
8958;SDS011;4514;49.476;8.484;2022-07-30T10:09:24;5.35;;;2.78;;
8958;SDS011;4514;49.476;8.484;2022-07-30T10:11:58;3.78;;;3.33;;
8958;SDS011;4514;49.476;8.484;2022-07-30T10:14:33;6.78;;;3.15;;
8958;SDS011;4514;49.476;8.484;2022-07-30T10:17:01;6.25;;;2.90;;
8958;SDS011;4514;49.476;8.484;2022-07-30T10:19:30;3.42;;;2.83;;
8958;SDS011;4514;49.476;8.484;2022-07-30T10:21:56;4.60;;;2.80;;
8958;SDS011;4514;49.476;8.484;2022-07-30T10:24:25;3.10;;;2.50;;
8958;SDS011;4514;49.476;8.484;2022-07-30T10:26:51;4.53;;;2.97;;
8958;SDS011;4514;49.476;8.484;2022-07-30T10:29:18;5.13;;;2.95;;
8958;SDS011;4514;49.476;8.484;2022-07-30T10:31:44;3.15;;;2.83;;
8958;SDS011;4514;49.476;8.484;2022-07-30T10:34:11;3.65;;;2.70;;
8958;SDS011;4514;49.476;8.484;2022-07-30T10:36:40;5.15;;;2.90;;
8958;SDS011;4514;49.476;8.484;2022-07-30T10:39:07;3.28;;;2.40;;
8958;SDS011;4514;49.476;8.484;2022-07-30T10:44:23;5.22;;;2.80;;
8958;SDS011;4514;49.476;8.484;2022-07-30T10:47:00;4.63;;;2.80;;
8958;SDS011;4514;49.476;8.484;2022-07-30T10:49:27;3.58;;;2.60;;
8958;SDS011;4514;49.476;8.484;2022-07-30T10:51:56;6.18;;;2.97;;
8958;SDS011;4514;49.476;8.484;2022-07-30T10:54:40;3.22;;;2.20;;
8958;SDS011;4514;49.476;8.484;2022-07-30T11:00:20;2.35;;;2.15;;
8958;SDS011;4514;49.476;8.484;2022-07-30T11:02:29;3.08;;;2.30;;
8958;SDS011;4514;49.476;8.484;2022-07-30T11:07:42;3.78;;;2.40;;
8958;SDS011;4514;49.476;8.484;2022-07-30T11:10:32;4.85;;;2.40;;
8958;SDS011;4514;49.476;8.484;2022-07-30T11:13:12;3.05;;;2.30;;
8958;SDS011;4514;49.476;8.484;2022-07-30T11:19:00;4.45;;;2.42;;
8958;SDS011;4514;49.476;8.484;2022-07-30T11:21:26;5.18;;;2.60;;
8958;SDS011;4514;49.476;8.484;2022-07-30T11:23:51;3.63;;;2.50;;
8958;SDS011;4514;49.476;8.484;2022-07-30T11:29:31;4.50;;;2.47;;
8958;SDS011;4514;49.476;8.484;2022-07-30T11:34:50;2.95;;;2.30;;
8958;SDS011;4514;49.476;8.484;2022-07-30T11:37:16;4.38;;;2.40;;
8958;SDS011;4514;49.476;8.484;2022-07-30T11:47:41;2.67;;;2.33;;
8958;SDS011;4514;49.476;8.484;2022-07-30T11:50:10;2.70;;;2.42;;
8958;SDS011;4514;49.476;8.484;2022-07-30T11:52:51;3.40;;;2.30;;
8958;SDS011;4514;49.476;8.484;2022-07-30T11:55:27;3.20;;;2.47;;
8958;SDS011;4514;49.476;8.484;2022-07-30T11:58:06;3.05;;;2.53;;
8958;SDS011;4514;49.476;8.484;2022-07-30T12:03:00;3.40;;;2.35;;
8958;SDS011;4514;49.476;8.484;2022-07-30T12:05:40;2.72;;;2.17;;
8958;SDS011;4514;49.476;8.484;2022-07-30T12:08:08;3.05;;;2.35;;
8958;SDS011;4514;49.476;8.484;2022-07-30T12:10:35;5.03;;;2.35;;
8958;SDS011;4514;49.476;8.484;2022-07-30T12:13:13;2.40;;;2.20;;
8958;SDS011;4514;49.476;8.484;2022-07-30T12:15:49;2.20;;;2.00;;
8958;SDS011;4514;49.476;8.484;2022-07-30T12:18:27;4.95;;;2.45;;
8958;SDS011;4514;49.476;8.484;2022-07-30T12:20:54;4.10;;;2.33;;
8958;SDS011;4514;49.476;8.484;2022-07-30T12:23:21;5.07;;;2.10;;
8958;SDS011;4514;49.476;8.484;2022-07-30T12:25:49;2.30;;;2.10;;
8958;SDS011;4514;49.476;8.484;2022-07-30T12:28:23;4.75;;;3.00;;
8958;SDS011;4514;49.476;8.484;2022-07-30T12:30:55;3.47;;;2.67;;
8958;SDS011;4514;49.476;8.484;2022-07-30T12:33:21;3.65;;;2.28;;
8958;SDS011;4514;49.476;8.484;2022-07-30T12:35:48;2.75;;;2.08;;
8958;SDS011;4514;49.476;8.484;2022-07-30T12:38:18;2.78;;;2.35;;
8958;SDS011;4514;49.476;8.484;2022-07-30T12:40:59;2.58;;;2.20;;
8958;SDS011;4514;49.476;8.484;2022-07-30T12:46:20;2.20;;;2.00;;
8958;SDS011;4514;49.476;8.484;2022-07-30T12:51:27;3.67;;;2.80;;
8958;SDS011;4514;49.476;8.484;2022-07-30T12:53:57;4.07;;;2.50;;
8958;SDS011;4514;49.476;8.484;2022-07-30T12:56:24;2.40;;;2.20;;
8958;SDS011;4514;49.476;8.484;2022-07-30T12:58:51;4.10;;;2.30;;
8958;SDS011;4514;49.476;8.484;2022-07-30T13:01:18;4.47;;;2.30;;
8958;SDS011;4514;49.476;8.484;2022-07-30T13:03:43;2.20;;;2.10;;
8958;SDS011;4514;49.476;8.484;2022-07-30T13:06:19;2.92;;;2.10;;
8958;SDS011;4514;49.476;8.484;2022-07-30T13:11:17;3.17;;;2.15;;
8958;SDS011;4514;49.476;8.484;2022-07-30T13:13:51;5.28;;;2.22;;
8958;SDS011;4514;49.476;8.484;2022-07-30T13:16:17;3.00;;;2.10;;
8958;SDS011;4514;49.476;8.484;2022-07-30T13:18:44;3.97;;;2.20;;
8958;SDS011;4514;49.476;8.484;2022-07-30T13:21:10;5.03;;;2.15;;
8958;SDS011;4514;49.476;8.484;2022-07-30T13:23:36;3.13;;;2.10;;
8958;SDS011;4514;49.476;8.484;2022-07-30T13:26:03;5.03;;;2.13;;
8958;SDS011;4514;49.476;8.484;2022-07-30T13:28:29;3.05;;;2.20;;
8958;SDS011;4514;49.476;8.484;2022-07-30T13:30:56;4.88;;;2.10;;
8958;SDS011;4514;49.476;8.484;2022-07-30T13:33:21;2.40;;;1.95;;
8958;SDS011;4514;49.476;8.484;2022-07-30T13:35:47;4.55;;;2.20;;
8958;SDS011;4514;49.476;8.484;2022-07-30T13:38:12;2.80;;;2.10;;
8958;SDS011;4514;49.476;8.484;2022-07-30T13:40:38;2.95;;;2.13;;
8958;SDS011;4514;49.476;8.484;2022-07-30T13:43:04;4.50;;;2.20;;
8958;SDS011;4514;49.476;8.484;2022-07-30T13:45:30;3.55;;;2.10;;
8958;SDS011;4514;49.476;8.484;2022-07-30T13:47:55;3.17;;;2.40;;
8958;SDS011;4514;49.476;8.484;2022-07-30T13:50:21;2.83;;;2.10;;
8958;SDS011;4514;49.476;8.484;2022-07-30T13:52:46;2.65;;;2.00;;
8958;SDS011;4514;49.476;8.484;2022-07-30T13:55:12;2.05;;;1.85;;
8958;SDS011;4514;49.476;8.484;2022-07-30T13:57:40;2.72;;;2.20;;
8958;SDS011;4514;49.476;8.484;2022-07-30T14:00:06;3.90;;;2.10;;
8958;SDS011;4514;49.476;8.484;2022-07-30T14:02:32;2.10;;;1.95;;
8958;SDS011;4514;49.476;8.484;2022-07-30T14:04:58;3.25;;;2.20;;
8958;SDS011;4514;49.476;8.484;2022-07-30T14:07:24;2.92;;;2.03;;
8958;SDS011;4514;49.476;8.484;2022-07-30T14:09:49;2.22;;;2.03;;
8958;SDS011;4514;49.476;8.484;2022-07-30T14:12:15;1.92;;;1.73;;
8958;SDS011;4514;49.476;8.484;2022-07-30T14:14:40;2.42;;;1.92;;
8958;SDS011;4514;49.476;8.484;2022-07-30T14:17:09;2.60;;;2.00;;
8958;SDS011;4514;49.476;8.484;2022-07-30T14:19:41;5.18;;;1.95;;
8958;SDS011;4514;49.476;8.484;2022-07-30T14:22:07;2.03;;;1.83;;
8958;SDS011;4514;49.476;8.484;2022-07-30T14:24:34;2.33;;;1.70;;
8958;SDS011;4514;49.476;8.484;2022-07-30T14:27:02;2.17;;;1.83;;
8958;SDS011;4514;49.476;8.484;2022-07-30T14:29:30;2.47;;;1.90;;
8958;SDS011;4514;49.476;8.484;2022-07-30T14:32:00;3.22;;;1.80;;
8958;SDS011;4514;49.476;8.484;2022-07-30T14:34:26;2.10;;;1.80;;
8958;SDS011;4514;49.476;8.484;2022-07-30T14:36:52;3.15;;;2.10;;
8958;SDS011;4514;49.476;8.484;2022-07-30T14:39:17;4.55;;;1.80;;
8958;SDS011;4514;49.476;8.484;2022-07-30T14:41:43;2.83;;;1.80;;
8958;SDS011;4514;49.476;8.484;2022-07-30T14:44:08;1.83;;;1.60;;
8958;SDS011;4514;49.476;8.484;2022-07-30T14:46:38;2.22;;;2.00;;
8958;SDS011;4514;49.476;8.484;2022-07-30T14:49:04;1.98;;;1.70;;
8958;SDS011;4514;49.476;8.484;2022-07-30T14:51:30;1.58;;;1.48;;
8958;SDS011;4514;49.476;8.484;2022-07-30T14:53:55;2.17;;;1.40;;
8958;SDS011;4514;49.476;8.484;2022-07-30T14:56:21;1.90;;;1.40;;
8958;SDS011;4514;49.476;8.484;2022-07-30T14:58:49;1.85;;;1.70;;
8958;SDS011;4514;49.476;8.484;2022-07-30T15:01:18;1.83;;;1.52;;
8958;SDS011;4514;49.476;8.484;2022-07-30T15:03:44;2.60;;;1.80;;
8958;SDS011;4514;49.476;8.484;2022-07-30T15:06:10;3.53;;;1.50;;
8958;SDS011;4514;49.476;8.484;2022-07-30T15:08:37;2.65;;;1.85;;
8958;SDS011;4514;49.476;8.484;2022-07-30T15:11:04;3.53;;;1.85;;
8958;SDS011;4514;49.476;8.484;2022-07-30T15:13:30;1.90;;;1.55;;
8958;SDS011;4514;49.476;8.484;2022-07-30T15:15:57;3.72;;;1.70;;
8958;SDS011;4514;49.476;8.484;2022-07-30T15:18:23;2.75;;;1.58;;
8958;SDS011;4514;49.476;8.484;2022-07-30T15:20:48;2.22;;;1.70;;
8958;SDS011;4514;49.476;8.484;2022-07-30T15:23:16;2.58;;;1.85;;
8958;SDS011;4514;49.476;8.484;2022-07-30T15:25:41;3.28;;;1.80;;
8958;SDS011;4514;49.476;8.484;2022-07-30T15:28:08;2.88;;;1.60;;
8958;SDS011;4514;49.476;8.484;2022-07-30T15:30:33;1.88;;;1.77;;
8958;SDS011;4514;49.476;8.484;2022-07-30T15:32:58;1.80;;;1.70;;
8958;SDS011;4514;49.476;8.484;2022-07-30T15:35:24;3.55;;;1.80;;
8958;SDS011;4514;49.476;8.484;2022-07-30T15:37:49;5.07;;;1.58;;
8958;SDS011;4514;49.476;8.484;2022-07-30T15:40:15;1.60;;;1.52;;
8958;SDS011;4514;49.476;8.484;2022-07-30T15:42:40;1.52;;;1.42;;
8958;SDS011;4514;49.476;8.484;2022-07-30T15:45:06;3.05;;;1.90;;
8958;SDS011;4514;49.476;8.484;2022-07-30T15:47:32;2.90;;;2.10;;
8958;SDS011;4514;49.476;8.484;2022-07-30T15:49:59;1.90;;;1.50;;
8958;SDS011;4514;49.476;8.484;2022-07-30T15:52:26;3.40;;;1.90;;
8958;SDS011;4514;49.476;8.484;2022-07-30T15:54:54;3.42;;;1.60;;
8958;SDS011;4514;49.476;8.484;2022-07-30T15:57:19;2.85;;;1.98;;
8958;SDS011;4514;49.476;8.484;2022-07-30T15:59:45;2.80;;;1.95;;
8958;SDS011;4514;49.476;8.484;2022-07-30T16:02:13;3.08;;;2.40;;
8958;SDS011;4514;49.476;8.484;2022-07-30T16:04:41;3.22;;;2.33;;
8958;SDS011;4514;49.476;8.484;2022-07-30T16:07:06;3.50;;;2.38;;